Baltimore, Maryland
Traffic Map
Current Weather Conditions
Baltimore, Maryland
Broken Clouds Haze
Broken Clouds
22°
Feels Like: 22°
Wind Chill: 22° Ceiling: 25000
Heat Index: 22° Visibility: 6mi
Dew Point: 18° Wind: 3mph
Humidity: 78% Direction: ° ()
Pressure: 30.14in Gusts: 0mph
Raw Report DataKBWI 051254Z VRB03KT 6SM HZ FEW020 SCT200 BKN250 22/18 A3014 RMK AO2 SLP205 T02220183 $
Traffic Incident Summary
Active as of:
Severity:
Category:
InformationThere was an issue retrieving the traffic information for this location. Please try a different location or try again shortly.
Advertisements
Track Severe Weather on mobile